VTK503 UHPP-UERR
Flight info
| Callsign | VTK503 |
|---|---|
| Flight time | 3h 49m |
| Altitude | 36000 |
| Route | BAKEN4M BAKEN A812 OTLIM G119 AMASA/K0846F380 G119 BANOT G370 RISIL RISIL3P |
| Aircraft | A319/M-SDE3FGHIRWY/LB1 |
Departure
| Time | 2026-04-17 04:14 |
|---|---|
| Airport | Yelizovo Airport (UHPP) |
Arrival
| Time | 2026-04-17 08:03 |
|---|---|
| Airport | Mirny Airport (UERR) |
| Time | Latitude | Longitude | Altitude | Speed | Heading |
|---|---|---|---|---|---|
| 2026-04-17 04:02 | 53.16845 | 158.42977 | 137 ft | 0 kts | 240° |
| 2026-04-17 04:10 | 53.16844 | 158.42975 | 164 ft | 2 kts | 240° |
| 2026-04-17 04:10 | 53.16834 | 158.42915 | 137 ft | 9 kts | 274° |
| 2026-04-17 04:10 | 53.16891 | 158.42827 | 137 ft | 13 kts | 330° |
| 2026-04-17 04:10 | 53.16987 | 158.42768 | 137 ft | 16 kts | 355° |
| 2026-04-17 04:11 | 53.17064 | 158.42899 | 137 ft | 18 kts | 61° |
| 2026-04-17 04:11 | 53.17128 | 158.43090 | 137 ft | 20 kts | 60° |
| 2026-04-17 04:11 | 53.17202 | 158.43302 | 137 ft | 22 kts | 60° |
| 2026-04-17 04:11 | 53.17282 | 158.43533 | 137 ft | 24 kts | 60° |
| 2026-04-17 04:12 | 53.17368 | 158.43780 | 137 ft | 26 kts | 60° |
| 2026-04-17 04:12 | 53.17458 | 158.44040 | 137 ft | 26 kts | 60° |
| 2026-04-17 04:12 | 53.17526 | 158.44310 | 137 ft | 25 kts | 68° |
| 2026-04-17 04:12 | 53.17574 | 158.44502 | 138 ft | 18 kts | 68° |
| 2026-04-17 04:13 | 53.17563 | 158.44631 | 138 ft | 7 kts | 158° |
| 2026-04-17 04:13 | 53.17508 | 158.44668 | 139 ft | 9 kts | 158° |
| 2026-04-17 04:13 | 53.17500 | 158.44673 | 139 ft | 0 kts | 157° |
| 2026-04-17 04:13 | 53.17488 | 158.44682 | 139 ft | 15 kts | 156° |
| 2026-04-17 04:14 | 53.17133 | 158.44931 | 136 ft | 92 kts | 157° |
| 2026-04-17 04:14 | 53.16356 | 158.45472 | 137 ft | 150 kts | 157° |
| 2026-04-17 04:14 | 53.15336 | 158.46175 | 685 ft | 152 kts | 158° |
| 2026-04-17 04:14 | 53.14367 | 158.46837 | 1433 ft | 149 kts | 158° |
| 2026-04-17 04:15 | 53.13382 | 158.47524 | 2050 ft | 163 kts | 157° |
| 2026-04-17 04:15 | 53.12264 | 158.48307 | 2494 ft | 185 kts | 158° |
| 2026-04-17 04:15 | 53.10994 | 158.49193 | 2907 ft | 210 kts | 158° |
| 2026-04-17 04:15 | 53.09565 | 158.50187 | 3414 ft | 235 kts | 158° |
| 2026-04-17 04:16 | 53.07989 | 158.51277 | 4053 ft | 253 kts | 158° |
| 2026-04-17 04:16 | 53.06334 | 158.52414 | 4973 ft | 260 kts | 158° |
| 2026-04-17 04:16 | 53.04642 | 158.53573 | 5931 ft | 266 kts | 158° |
| 2026-04-17 04:16 | 53.02917 | 158.54754 | 6876 ft | 270 kts | 157° |
| 2026-04-17 04:17 | 53.01166 | 158.55953 | 7811 ft | 275 kts | 157° |
| 2026-04-17 04:17 | 52.99328 | 158.56905 | 8706 ft | 281 kts | 174° |
| 2026-04-17 04:17 | 52.97385 | 158.56552 | 9624 ft | 285 kts | 200° |
| 2026-04-17 04:17 | 52.95679 | 158.54879 | 10484 ft | 288 kts | 224° |
| 2026-04-17 04:18 | 52.94520 | 158.52184 | 11308 ft | 290 kts | 249° |
| 2026-04-17 04:18 | 52.94099 | 158.48843 | 11729 ft | 308 kts | 274° |
| 2026-04-17 04:18 | 52.94671 | 158.45369 | 12198 ft | 320 kts | 301° |
| 2026-04-17 04:18 | 52.96160 | 158.42639 | 12938 ft | 324 kts | 327° |
| 2026-04-17 04:19 | 52.98204 | 158.41057 | 13760 ft | 327 kts | 340° |
| 2026-04-17 04:19 | 53.00345 | 158.39735 | 14520 ft | 330 kts | 340° |
| 2026-04-17 04:19 | 53.02515 | 158.38426 | 15266 ft | 333 kts | 340° |
| 2026-04-17 04:19 | 53.04708 | 158.37111 | 15998 ft | 337 kts | 340° |
| 2026-04-17 04:20 | 53.06918 | 158.35780 | 16734 ft | 340 kts | 340° |
| 2026-04-17 04:20 | 53.09156 | 158.34423 | 17475 ft | 344 kts | 340° |
| 2026-04-17 04:20 | 53.11413 | 158.33046 | 18174 ft | 347 kts | 340° |
| 2026-04-17 04:20 | 53.13693 | 158.31652 | 18797 ft | 351 kts | 339° |
| 2026-04-17 04:21 | 53.16026 | 158.30226 | 19450 ft | 353 kts | 339° |
| 2026-04-17 04:21 | 53.18339 | 158.28809 | 20103 ft | 356 kts | 339° |
| 2026-04-17 04:21 | 53.20669 | 158.27378 | 20756 ft | 358 kts | 339° |
| 2026-04-17 04:21 | 53.23021 | 158.25935 | 21390 ft | 361 kts | 339° |
| 2026-04-17 04:22 | 53.25383 | 158.24487 | 22035 ft | 364 kts | 339° |
| 2026-04-17 04:22 | 53.27769 | 158.23018 | 22683 ft | 366 kts | 338° |
| 2026-04-17 04:22 | 53.30168 | 158.21536 | 23312 ft | 369 kts | 338° |
| 2026-04-17 04:22 | 53.32587 | 158.20039 | 23853 ft | 372 kts | 338° |
| 2026-04-17 04:23 | 53.35021 | 158.18532 | 24321 ft | 375 kts | 338° |
| 2026-04-17 04:23 | 53.37477 | 158.17010 | 24784 ft | 378 kts | 338° |
| 2026-04-17 04:23 | 53.39957 | 158.15473 | 25232 ft | 382 kts | 338° |
| 2026-04-17 04:23 | 53.42463 | 158.13920 | 25666 ft | 385 kts | 338° |
| 2026-04-17 04:24 | 53.44984 | 158.12356 | 26101 ft | 388 kts | 338° |
| 2026-04-17 04:24 | 53.47530 | 158.10773 | 26530 ft | 391 kts | 338° |
| 2026-04-17 04:24 | 53.50091 | 158.09178 | 26953 ft | 394 kts | 338° |
| 2026-04-17 04:24 | 53.52673 | 158.07568 | 27368 ft | 398 kts | 338° |
| 2026-04-17 04:25 | 53.55281 | 158.05940 | 27787 ft | 401 kts | 338° |
| 2026-04-17 04:25 | 53.57905 | 158.04301 | 28193 ft | 404 kts | 338° |
| 2026-04-17 04:25 | 53.60545 | 158.02650 | 28599 ft | 407 kts | 338° |
| 2026-04-17 04:25 | 53.63210 | 158.00982 | 28989 ft | 410 kts | 338° |
| 2026-04-17 04:26 | 53.65881 | 157.99227 | 29369 ft | 412 kts | 333° |
| 2026-04-17 04:26 | 53.68413 | 157.96947 | 29740 ft | 414 kts | 328° |
| 2026-04-17 04:26 | 53.70926 | 157.94538 | 30089 ft | 417 kts | 328° |
| 2026-04-17 04:26 | 53.73457 | 157.92106 | 30367 ft | 420 kts | 328° |
| 2026-04-17 04:27 | 53.76010 | 157.89649 | 30640 ft | 423 kts | 328° |
| 2026-04-17 04:27 | 53.78578 | 157.87177 | 30904 ft | 426 kts | 329° |
| 2026-04-17 04:27 | 53.81160 | 157.84688 | 31156 ft | 429 kts | 328° |
| 2026-04-17 04:27 | 53.83763 | 157.82158 | 31406 ft | 432 kts | 328° |
| 2026-04-17 04:28 | 53.86378 | 157.79601 | 31661 ft | 435 kts | 328° |
| 2026-04-17 04:28 | 53.88151 | 157.77861 | 31889 ft | 436 kts | 328° |
| 2026-04-17 04:28 | 53.91661 | 157.74413 | 32355 ft | 436 kts | 328° |
| 2026-04-17 04:28 | 53.93397 | 157.72709 | 32574 ft | 437 kts | 328° |
| 2026-04-17 04:29 | 53.96031 | 157.70120 | 32904 ft | 437 kts | 328° |
| 2026-04-17 04:29 | 53.98665 | 157.67529 | 33229 ft | 438 kts | 328° |
| 2026-04-17 04:29 | 54.01305 | 157.64926 | 33566 ft | 439 kts | 328° |
| 2026-04-17 04:29 | 54.03946 | 157.62320 | 33889 ft | 440 kts | 328° |
| 2026-04-17 04:30 | 54.06596 | 157.59700 | 34159 ft | 440 kts | 328° |
| 2026-04-17 04:30 | 54.09239 | 157.57083 | 34427 ft | 441 kts | 328° |
| 2026-04-17 04:30 | 54.11893 | 157.54454 | 34703 ft | 441 kts | 328° |
| 2026-04-17 04:30 | 54.14549 | 157.51836 | 34961 ft | 441 kts | 328° |
| 2026-04-17 04:31 | 54.17205 | 157.49223 | 35218 ft | 441 kts | 328° |
| 2026-04-17 04:31 | 54.19866 | 157.46606 | 35467 ft | 441 kts | 328° |
| 2026-04-17 04:31 | 54.22525 | 157.43983 | 35707 ft | 441 kts | 328° |
| 2026-04-17 04:31 | 54.25181 | 157.41353 | 35891 ft | 442 kts | 328° |
| 2026-04-17 04:32 | 54.27838 | 157.38713 | 35945 ft | 438 kts | 328° |
| 2026-04-17 04:32 | 54.33079 | 157.33496 | 35954 ft | 434 kts | 328° |
| 2026-04-17 04:33 | 54.38294 | 157.28286 | 35959 ft | 434 kts | 328° |
| 2026-04-17 04:33 | 54.43546 | 157.23035 | 35964 ft | 434 kts | 328° |
| 2026-04-17 04:34 | 54.51373 | 157.15192 | 35970 ft | 434 kts | 328° |
| 2026-04-17 04:34 | 54.56588 | 157.09938 | 35976 ft | 434 kts | 328° |
| 2026-04-17 04:35 | 54.61801 | 157.04653 | 35977 ft | 434 kts | 328° |
| 2026-04-17 04:35 | 54.67008 | 156.99356 | 35984 ft | 434 kts | 328° |
| 2026-04-17 04:36 | 54.72221 | 156.94073 | 35984 ft | 434 kts | 328° |
| 2026-04-17 04:36 | 54.77432 | 156.88772 | 35986 ft | 434 kts | 328° |
| 2026-04-17 04:37 | 54.82642 | 156.83448 | 35993 ft | 435 kts | 328° |
| 2026-04-17 04:37 | 54.87850 | 156.78114 | 35997 ft | 435 kts | 328° |
| 2026-04-17 04:38 | 54.93048 | 156.72756 | 36001 ft | 435 kts | 328° |
| 2026-04-17 04:38 | 54.98248 | 156.67368 | 36007 ft | 435 kts | 328° |
| 2026-04-17 04:39 | 55.03448 | 156.61983 | 36013 ft | 435 kts | 328° |
| 2026-04-17 04:39 | 55.08652 | 156.56586 | 36020 ft | 435 kts | 328° |
| 2026-04-17 04:40 | 55.13845 | 156.51168 | 36019 ft | 435 kts | 328° |
| 2026-04-17 04:40 | 55.19034 | 156.45732 | 36025 ft | 435 kts | 328° |
| 2026-04-17 04:41 | 55.24226 | 156.40302 | 36030 ft | 435 kts | 328° |
| 2026-04-17 04:41 | 55.29446 | 156.34820 | 36029 ft | 434 kts | 328° |
| 2026-04-17 04:42 | 55.34631 | 156.29365 | 36037 ft | 434 kts | 328° |
| 2026-04-17 04:42 | 55.39810 | 156.23891 | 36043 ft | 434 kts | 328° |
| 2026-04-17 04:43 | 55.44973 | 156.18401 | 36045 ft | 433 kts | 328° |
| 2026-04-17 04:43 | 55.50124 | 156.12894 | 36048 ft | 433 kts | 328° |
| 2026-04-17 04:44 | 55.55269 | 156.07375 | 36051 ft | 433 kts | 328° |
| 2026-04-17 04:44 | 55.60417 | 156.01841 | 36052 ft | 433 kts | 328° |
| 2026-04-17 04:45 | 55.65562 | 155.96302 | 36056 ft | 433 kts | 328° |
| 2026-04-17 04:45 | 55.70710 | 155.90735 | 36063 ft | 434 kts | 328° |
| 2026-04-17 04:46 | 55.75856 | 155.85140 | 36068 ft | 433 kts | 328° |
| 2026-04-17 04:46 | 55.80997 | 155.79547 | 36071 ft | 433 kts | 328° |
| 2026-04-17 04:47 | 55.86138 | 155.73938 | 36073 ft | 433 kts | 328° |
| 2026-04-17 04:47 | 55.91268 | 155.68304 | 36075 ft | 433 kts | 328° |
| 2026-04-17 04:48 | 55.96401 | 155.62665 | 36078 ft | 433 kts | 328° |
| 2026-04-17 04:48 | 56.01563 | 155.56978 | 36082 ft | 433 kts | 328° |
| 2026-04-17 04:49 | 56.06650 | 155.51352 | 36085 ft | 433 kts | 328° |
| 2026-04-17 04:49 | 56.11807 | 155.45632 | 36092 ft | 433 kts | 328° |
| 2026-04-17 04:50 | 56.16926 | 155.39933 | 36093 ft | 433 kts | 328° |
| 2026-04-17 04:50 | 56.22053 | 155.34243 | 36099 ft | 433 kts | 329° |
| 2026-04-17 04:51 | 56.27201 | 155.28619 | 36104 ft | 433 kts | 329° |
| 2026-04-17 04:51 | 56.32358 | 155.22989 | 36109 ft | 433 kts | 329° |
| 2026-04-17 04:52 | 56.37495 | 155.17339 | 36107 ft | 433 kts | 329° |
| 2026-04-17 04:52 | 56.42626 | 155.11656 | 36103 ft | 432 kts | 329° |
| 2026-04-17 04:53 | 56.47747 | 155.05956 | 36110 ft | 432 kts | 329° |
| 2026-04-17 04:55 | 56.68107 | 154.83168 | 36131 ft | 428 kts | 327° |
| 2026-04-17 04:55 | 56.73164 | 154.77457 | 36127 ft | 428 kts | 327° |
| 2026-04-17 04:56 | 56.78251 | 154.71694 | 36127 ft | 428 kts | 327° |
| 2026-04-17 04:56 | 56.83299 | 154.65957 | 36126 ft | 428 kts | 327° |
| 2026-04-17 04:57 | 56.88355 | 154.60208 | 36128 ft | 428 kts | 327° |
| 2026-04-17 04:57 | 56.93406 | 154.54441 | 36129 ft | 428 kts | 327° |
| 2026-04-17 04:58 | 56.98456 | 154.48636 | 36132 ft | 428 kts | 327° |
| 2026-04-17 04:58 | 57.03505 | 154.42824 | 36136 ft | 429 kts | 327° |
| 2026-04-17 04:59 | 57.08562 | 154.36995 | 36139 ft | 429 kts | 327° |
| 2026-04-17 04:59 | 57.13611 | 154.31143 | 36143 ft | 429 kts | 327° |
| 2026-04-17 05:00 | 57.18656 | 154.25249 | 36148 ft | 429 kts | 325° |
| 2026-04-17 05:00 | 57.22372 | 154.19241 | 36148 ft | 428 kts | 314° |
| 2026-04-17 05:01 | 57.26571 | 154.11427 | 36147 ft | 428 kts | 314° |
| 2026-04-17 05:01 | 57.30804 | 154.03575 | 36154 ft | 429 kts | 314° |
| 2026-04-17 05:02 | 57.35016 | 153.95747 | 36152 ft | 429 kts | 314° |
| 2026-04-17 05:02 | 57.39214 | 153.87906 | 36154 ft | 429 kts | 314° |
| 2026-04-17 05:03 | 57.43409 | 153.80034 | 36151 ft | 429 kts | 314° |
| 2026-04-17 05:03 | 57.47595 | 153.72149 | 36148 ft | 429 kts | 314° |
| 2026-04-17 05:04 | 57.51781 | 153.64240 | 36153 ft | 429 kts | 314° |
| 2026-04-17 05:04 | 57.55960 | 153.56300 | 36153 ft | 429 kts | 314° |
| 2026-04-17 05:05 | 57.60135 | 153.48338 | 36148 ft | 429 kts | 314° |
| 2026-04-17 05:05 | 57.64308 | 153.40363 | 36151 ft | 430 kts | 314° |
| 2026-04-17 05:06 | 57.68482 | 153.32367 | 36149 ft | 430 kts | 314° |
| 2026-04-17 05:06 | 57.72657 | 153.24371 | 36151 ft | 430 kts | 314° |
| 2026-04-17 05:07 | 57.76839 | 153.16366 | 36148 ft | 430 kts | 314° |
| 2026-04-17 05:07 | 57.81013 | 153.08344 | 36147 ft | 430 kts | 314° |
| 2026-04-17 05:08 | 57.85179 | 153.00306 | 36150 ft | 430 kts | 314° |
| 2026-04-17 05:08 | 57.89350 | 152.92240 | 36148 ft | 430 kts | 314° |
| 2026-04-17 05:09 | 57.93539 | 152.84105 | 36149 ft | 430 kts | 314° |
| 2026-04-17 05:09 | 57.97688 | 152.75986 | 36146 ft | 430 kts | 314° |
| 2026-04-17 05:10 | 58.01827 | 152.67837 | 36149 ft | 430 kts | 313° |
| 2026-04-17 05:10 | 58.05947 | 152.59660 | 36153 ft | 430 kts | 313° |
| 2026-04-17 05:11 | 58.10062 | 152.51451 | 36150 ft | 430 kts | 313° |
| 2026-04-17 05:11 | 58.14174 | 152.43227 | 36156 ft | 430 kts | 313° |
| 2026-04-17 05:12 | 58.18289 | 152.34996 | 36153 ft | 430 kts | 313° |
| 2026-04-17 05:12 | 58.22392 | 152.26764 | 36153 ft | 430 kts | 313° |
| 2026-04-17 05:13 | 58.26488 | 152.18508 | 36155 ft | 430 kts | 313° |
| 2026-04-17 05:13 | 58.30580 | 152.10225 | 36158 ft | 429 kts | 313° |
| 2026-04-17 05:14 | 58.34672 | 152.01956 | 36157 ft | 429 kts | 313° |
| 2026-04-17 05:14 | 58.38762 | 151.93654 | 36153 ft | 429 kts | 313° |
| 2026-04-17 05:15 | 58.42838 | 151.85339 | 36152 ft | 429 kts | 313° |
| 2026-04-17 05:15 | 58.46904 | 151.76994 | 36152 ft | 429 kts | 313° |
| 2026-04-17 05:16 | 58.50973 | 151.68633 | 36154 ft | 429 kts | 313° |
| 2026-04-17 05:16 | 58.55043 | 151.60258 | 36151 ft | 430 kts | 313° |
| 2026-04-17 05:17 | 58.59129 | 151.51812 | 36150 ft | 430 kts | 313° |
| 2026-04-17 05:17 | 58.63186 | 151.43377 | 36152 ft | 430 kts | 313° |
| 2026-04-17 05:18 | 58.67235 | 151.34926 | 36153 ft | 430 kts | 313° |
| 2026-04-17 05:18 | 58.71278 | 151.26467 | 36144 ft | 430 kts | 313° |
| 2026-04-17 05:19 | 58.75321 | 151.17977 | 36146 ft | 430 kts | 313° |
| 2026-04-17 05:19 | 58.79354 | 151.09455 | 36148 ft | 430 kts | 313° |
| 2026-04-17 05:20 | 58.83387 | 151.00928 | 36146 ft | 430 kts | 313° |
| 2026-04-17 05:20 | 58.87412 | 150.92371 | 36146 ft | 430 kts | 312° |
| 2026-04-17 05:21 | 58.91426 | 150.83769 | 36148 ft | 431 kts | 312° |
| 2026-04-17 05:21 | 58.95446 | 150.75171 | 36146 ft | 431 kts | 313° |
| 2026-04-17 05:22 | 58.99465 | 150.66558 | 36144 ft | 431 kts | 312° |
| 2026-04-17 05:22 | 59.03472 | 150.57906 | 36143 ft | 431 kts | 312° |
| 2026-04-17 05:23 | 59.07474 | 150.49223 | 36137 ft | 431 kts | 312° |
| 2026-04-17 05:23 | 59.11466 | 150.40522 | 36134 ft | 432 kts | 312° |
| 2026-04-17 05:24 | 59.15488 | 150.31718 | 36133 ft | 432 kts | 312° |
| 2026-04-17 05:24 | 59.19454 | 150.23025 | 36130 ft | 432 kts | 312° |
| 2026-04-17 05:25 | 59.23469 | 150.14197 | 36131 ft | 432 kts | 312° |
| 2026-04-17 05:25 | 59.27454 | 150.05402 | 36129 ft | 432 kts | 312° |
| 2026-04-17 05:26 | 59.31443 | 149.96591 | 36126 ft | 432 kts | 312° |
| 2026-04-17 05:26 | 59.35420 | 149.87755 | 36124 ft | 432 kts | 311° |
| 2026-04-17 05:27 | 59.39384 | 149.78902 | 36126 ft | 432 kts | 311° |
| 2026-04-17 05:27 | 59.43350 | 149.70029 | 36126 ft | 432 kts | 311° |
| 2026-04-17 05:28 | 59.47306 | 149.61123 | 36121 ft | 432 kts | 311° |
| 2026-04-17 05:28 | 59.51257 | 149.52215 | 36125 ft | 432 kts | 311° |
| 2026-04-17 05:29 | 59.55195 | 149.43290 | 36126 ft | 432 kts | 311° |
| 2026-04-17 05:29 | 59.59133 | 149.34344 | 36123 ft | 432 kts | 311° |
| 2026-04-17 05:30 | 59.63056 | 149.25367 | 36123 ft | 431 kts | 311° |
| 2026-04-17 05:30 | 59.66907 | 149.16278 | 36119 ft | 431 kts | 305° |
| 2026-04-17 05:31 | 59.69596 | 149.05695 | 36119 ft | 432 kts | 293° |
| 2026-04-17 05:31 | 59.71906 | 148.94711 | 36115 ft | 432 kts | 294° |
| 2026-04-17 05:32 | 59.74239 | 148.83724 | 36109 ft | 432 kts | 294° |
| 2026-04-17 05:32 | 59.76556 | 148.72660 | 36108 ft | 432 kts | 293° |
| 2026-04-17 05:33 | 59.78844 | 148.61641 | 36109 ft | 431 kts | 293° |
| 2026-04-17 05:33 | 59.80732 | 148.52493 | 36109 ft | 431 kts | 293° |
| 2026-04-17 05:34 | 59.82997 | 148.41469 | 36104 ft | 431 kts | 293° |
| 2026-04-17 05:34 | 59.85253 | 148.30434 | 36098 ft | 431 kts | 293° |
| 2026-04-17 05:35 | 59.87499 | 148.19394 | 36097 ft | 431 kts | 293° |
| 2026-04-17 05:35 | 59.89742 | 148.08337 | 36096 ft | 431 kts | 293° |
| 2026-04-17 05:36 | 59.91969 | 147.97246 | 36092 ft | 431 kts | 292° |
| 2026-04-17 05:36 | 59.94185 | 147.86153 | 36091 ft | 431 kts | 292° |
| 2026-04-17 05:37 | 59.96387 | 147.75045 | 36094 ft | 430 kts | 292° |
| 2026-04-17 05:37 | 59.98604 | 147.63858 | 36091 ft | 430 kts | 292° |
| 2026-04-17 05:38 | 60.00787 | 147.52736 | 36088 ft | 430 kts | 292° |
| 2026-04-17 05:38 | 60.02967 | 147.41587 | 36087 ft | 430 kts | 292° |
| 2026-04-17 05:39 | 60.05140 | 147.30452 | 36085 ft | 430 kts | 292° |
| 2026-04-17 05:39 | 60.07305 | 147.19294 | 36083 ft | 430 kts | 292° |
| 2026-04-17 05:40 | 60.09445 | 147.08118 | 36080 ft | 430 kts | 292° |
| 2026-04-17 05:40 | 60.11583 | 146.96929 | 36079 ft | 430 kts | 292° |
| 2026-04-17 05:41 | 60.13716 | 146.85730 | 36076 ft | 430 kts | 292° |
| 2026-04-17 05:41 | 60.15838 | 146.74519 | 36075 ft | 430 kts | 291° |
| 2026-04-17 05:42 | 60.17946 | 146.63295 | 36073 ft | 430 kts | 291° |
| 2026-04-17 05:42 | 60.20044 | 146.52068 | 36068 ft | 429 kts | 291° |
| 2026-04-17 05:43 | 60.22135 | 146.40811 | 36069 ft | 429 kts | 291° |
| 2026-04-17 05:43 | 60.24219 | 146.29546 | 36066 ft | 429 kts | 291° |
| 2026-04-17 05:44 | 60.26294 | 146.18277 | 36066 ft | 429 kts | 291° |
| 2026-04-17 05:44 | 60.28355 | 146.06990 | 36063 ft | 429 kts | 291° |
| 2026-04-17 05:45 | 60.30401 | 145.95678 | 36062 ft | 429 kts | 291° |
| 2026-04-17 05:45 | 60.32433 | 145.84359 | 36060 ft | 429 kts | 290° |
| 2026-04-17 05:46 | 60.34453 | 145.72938 | 36056 ft | 429 kts | 290° |
| 2026-04-17 05:46 | 60.36450 | 145.61585 | 36055 ft | 429 kts | 290° |
| 2026-04-17 05:47 | 60.38433 | 145.50198 | 36051 ft | 429 kts | 290° |
| 2026-04-17 05:47 | 60.40407 | 145.38807 | 36051 ft | 429 kts | 290° |
| 2026-04-17 05:48 | 60.42379 | 145.27412 | 36049 ft | 429 kts | 290° |
| 2026-04-17 05:48 | 60.44338 | 145.15996 | 36048 ft | 429 kts | 289° |
| 2026-04-17 05:49 | 60.46285 | 145.04567 | 36048 ft | 429 kts | 289° |
| 2026-04-17 05:49 | 60.48224 | 144.93131 | 36045 ft | 429 kts | 289° |
| 2026-04-17 05:50 | 60.50161 | 144.81684 | 36042 ft | 429 kts | 289° |
| 2026-04-17 05:50 | 60.52084 | 144.70212 | 36044 ft | 429 kts | 289° |
| 2026-04-17 05:51 | 60.53993 | 144.58734 | 36043 ft | 429 kts | 289° |
| 2026-04-17 05:51 | 60.55897 | 144.47233 | 36039 ft | 429 kts | 289° |
| 2026-04-17 05:52 | 60.57785 | 144.35714 | 36038 ft | 429 kts | 288° |
| 2026-04-17 05:52 | 60.59662 | 144.24179 | 36036 ft | 430 kts | 288° |
| 2026-04-17 05:53 | 60.61560 | 144.12549 | 36033 ft | 430 kts | 288° |
| 2026-04-17 05:53 | 60.63426 | 144.01069 | 36030 ft | 430 kts | 288° |
| 2026-04-17 05:54 | 60.65300 | 143.89404 | 36027 ft | 430 kts | 288° |
| 2026-04-17 05:54 | 60.67149 | 143.77789 | 36027 ft | 430 kts | 288° |
| 2026-04-17 05:55 | 60.68994 | 143.66169 | 36027 ft | 431 kts | 288° |
| 2026-04-17 05:55 | 60.70836 | 143.54542 | 36023 ft | 431 kts | 288° |
| 2026-04-17 05:56 | 60.72671 | 143.42887 | 36027 ft | 431 kts | 288° |
| 2026-04-17 05:56 | 60.74493 | 143.31223 | 36028 ft | 431 kts | 287° |
| 2026-04-17 05:57 | 60.76293 | 143.19541 | 36027 ft | 431 kts | 287° |
| 2026-04-17 05:57 | 60.78079 | 143.07831 | 36023 ft | 431 kts | 287° |
| 2026-04-17 05:58 | 60.79864 | 142.96106 | 36026 ft | 431 kts | 287° |
| 2026-04-17 05:59 | 60.82534 | 142.78498 | 36025 ft | 432 kts | 287° |
| 2026-04-17 05:59 | 60.84302 | 142.66740 | 36028 ft | 432 kts | 287° |
| 2026-04-17 06:00 | 60.86061 | 142.54957 | 36024 ft | 432 kts | 286° |
| 2026-04-17 06:00 | 60.87805 | 142.43170 | 36019 ft | 432 kts | 286° |
| 2026-04-17 06:01 | 60.89540 | 142.31262 | 36021 ft | 432 kts | 286° |
| 2026-04-17 06:01 | 60.91258 | 142.19429 | 36031 ft | 432 kts | 286° |
| 2026-04-17 06:02 | 60.92966 | 142.07580 | 36030 ft | 432 kts | 285° |
| 2026-04-17 06:02 | 60.94674 | 141.95718 | 36028 ft | 433 kts | 285° |
| 2026-04-17 06:03 | 60.96366 | 141.83844 | 36033 ft | 433 kts | 285° |
| 2026-04-17 06:03 | 60.98051 | 141.71940 | 36031 ft | 433 kts | 285° |
| 2026-04-17 06:04 | 60.99724 | 141.60036 | 36032 ft | 433 kts | 285° |
| 2026-04-17 06:04 | 61.01391 | 141.48098 | 36025 ft | 433 kts | 285° |
| 2026-04-17 06:05 | 61.03052 | 141.36162 | 36019 ft | 433 kts | 285° |
| 2026-04-17 06:05 | 61.04700 | 141.24206 | 36011 ft | 433 kts | 284° |
| 2026-04-17 06:06 | 61.06330 | 141.12218 | 36004 ft | 434 kts | 284° |
| 2026-04-17 06:06 | 61.07947 | 141.00216 | 35998 ft | 434 kts | 284° |
| 2026-04-17 06:07 | 61.09561 | 140.88187 | 35998 ft | 434 kts | 284° |
| 2026-04-17 06:07 | 61.11161 | 140.76158 | 35997 ft | 435 kts | 284° |
| 2026-04-17 06:08 | 61.12496 | 140.66054 | 35996 ft | 434 kts | 284° |
| 2026-04-17 06:08 | 61.14081 | 140.53994 | 35991 ft | 434 kts | 284° |
| 2026-04-17 06:09 | 61.15655 | 140.41914 | 35991 ft | 434 kts | 284° |
| 2026-04-17 06:09 | 61.17216 | 140.29837 | 35991 ft | 434 kts | 283° |
| 2026-04-17 06:10 | 61.18770 | 140.17728 | 35990 ft | 434 kts | 283° |
| 2026-04-17 06:10 | 61.20319 | 140.05617 | 35990 ft | 435 kts | 283° |
| 2026-04-17 06:11 | 61.21861 | 139.93497 | 35986 ft | 435 kts | 283° |
| 2026-04-17 06:11 | 61.23389 | 139.81355 | 35986 ft | 435 kts | 283° |
| 2026-04-17 06:12 | 61.24901 | 139.69198 | 35982 ft | 435 kts | 283° |
| 2026-04-17 06:12 | 61.26412 | 139.57031 | 35979 ft | 435 kts | 282° |
| 2026-04-17 06:13 | 61.27898 | 139.44841 | 35972 ft | 435 kts | 282° |
| 2026-04-17 06:13 | 61.29382 | 139.32547 | 35970 ft | 435 kts | 282° |
| 2026-04-17 06:14 | 61.30852 | 139.20333 | 35965 ft | 435 kts | 282° |
| 2026-04-17 06:14 | 61.32310 | 139.08113 | 35955 ft | 435 kts | 282° |
| 2026-04-17 06:15 | 61.33756 | 138.95875 | 35955 ft | 435 kts | 282° |
| 2026-04-17 06:15 | 61.35197 | 138.83637 | 35956 ft | 435 kts | 282° |
| 2026-04-17 06:16 | 61.36630 | 138.71375 | 35947 ft | 435 kts | 282° |
| 2026-04-17 06:16 | 61.38045 | 138.59119 | 35942 ft | 435 kts | 281° |
| 2026-04-17 06:17 | 61.39442 | 138.46844 | 35941 ft | 435 kts | 281° |
| 2026-04-17 06:17 | 61.40832 | 138.34566 | 35941 ft | 435 kts | 281° |
| 2026-04-17 06:18 | 61.42216 | 138.22277 | 35933 ft | 435 kts | 281° |
| 2026-04-17 06:18 | 61.43591 | 138.09968 | 35928 ft | 435 kts | 281° |
| 2026-04-17 06:19 | 61.44951 | 137.97658 | 35927 ft | 435 kts | 281° |
| 2026-04-17 06:19 | 61.46302 | 137.85340 | 35922 ft | 434 kts | 281° |
| 2026-04-17 06:20 | 61.47646 | 137.73016 | 35913 ft | 435 kts | 281° |
| 2026-04-17 06:20 | 61.48968 | 137.60681 | 35911 ft | 434 kts | 281° |
| 2026-04-17 06:21 | 61.50277 | 137.48324 | 35910 ft | 434 kts | 280° |
| 2026-04-17 06:21 | 61.51579 | 137.35886 | 35902 ft | 434 kts | 280° |
| 2026-04-17 06:22 | 61.52870 | 137.23532 | 35904 ft | 434 kts | 280° |
| 2026-04-17 06:22 | 61.54154 | 137.11162 | 35900 ft | 434 kts | 280° |
| 2026-04-17 06:23 | 61.55421 | 136.98773 | 35892 ft | 434 kts | 280° |
| 2026-04-17 06:23 | 61.56677 | 136.86387 | 35890 ft | 434 kts | 280° |
| 2026-04-17 06:24 | 61.57924 | 136.73990 | 35882 ft | 434 kts | 280° |
| 2026-04-17 06:24 | 61.59160 | 136.61580 | 35878 ft | 434 kts | 279° |
| 2026-04-17 06:25 | 61.60380 | 136.49154 | 35875 ft | 434 kts | 279° |
| 2026-04-17 06:25 | 61.61582 | 136.36712 | 35862 ft | 434 kts | 279° |
| 2026-04-17 06:26 | 61.62787 | 136.24263 | 35874 ft | 434 kts | 279° |
| 2026-04-17 06:26 | 61.63980 | 136.11811 | 35867 ft | 434 kts | 279° |
| 2026-04-17 06:27 | 61.65154 | 135.99344 | 35860 ft | 435 kts | 279° |
| 2026-04-17 06:27 | 61.66320 | 135.86868 | 35860 ft | 434 kts | 279° |
| 2026-04-17 06:28 | 61.67477 | 135.74385 | 35863 ft | 434 kts | 279° |
| 2026-04-17 06:28 | 61.68636 | 135.61809 | 35866 ft | 434 kts | 279° |
| 2026-04-17 06:29 | 61.69767 | 135.49312 | 35863 ft | 435 kts | 278° |
| 2026-04-17 06:29 | 61.70874 | 135.36787 | 35861 ft | 434 kts | 278° |
| 2026-04-17 06:30 | 61.71979 | 135.24265 | 35855 ft | 435 kts | 278° |
| 2026-04-17 06:30 | 61.73080 | 135.11730 | 35853 ft | 435 kts | 278° |
| 2026-04-17 06:31 | 61.74192 | 134.99198 | 35854 ft | 435 kts | 278° |
| 2026-04-17 06:31 | 61.75308 | 134.86658 | 35855 ft | 435 kts | 278° |
| 2026-04-17 06:32 | 61.76409 | 134.74101 | 35852 ft | 435 kts | 278° |
| 2026-04-17 06:32 | 61.77489 | 134.61528 | 35854 ft | 435 kts | 278° |
| 2026-04-17 06:33 | 61.78553 | 134.48943 | 35852 ft | 435 kts | 278° |
| 2026-04-17 06:33 | 61.79606 | 134.36345 | 35848 ft | 435 kts | 277° |
| 2026-04-17 06:34 | 61.80647 | 134.23738 | 35846 ft | 436 kts | 277° |
| 2026-04-17 06:34 | 61.81684 | 134.11106 | 35848 ft | 436 kts | 277° |
| 2026-04-17 06:35 | 61.82713 | 133.98473 | 35845 ft | 436 kts | 277° |
| 2026-04-17 06:35 | 61.83734 | 133.85736 | 35845 ft | 436 kts | 277° |
| 2026-04-17 06:36 | 61.84737 | 133.73076 | 35848 ft | 436 kts | 277° |
| 2026-04-17 06:36 | 61.85717 | 133.60410 | 35848 ft | 436 kts | 277° |
| 2026-04-17 06:37 | 61.86665 | 133.47714 | 35848 ft | 436 kts | 276° |
| 2026-04-17 06:37 | 61.87599 | 133.35026 | 35847 ft | 436 kts | 276° |
| 2026-04-17 06:38 | 61.88522 | 133.22332 | 35849 ft | 436 kts | 276° |
| 2026-04-17 06:38 | 61.89426 | 133.09625 | 35849 ft | 436 kts | 276° |
| 2026-04-17 06:39 | 61.90317 | 132.96903 | 35848 ft | 436 kts | 276° |
| 2026-04-17 06:39 | 61.91203 | 132.84185 | 35846 ft | 436 kts | 276° |
| 2026-04-17 06:40 | 61.92076 | 132.71467 | 35847 ft | 436 kts | 276° |
| 2026-04-17 06:40 | 61.92788 | 132.60891 | 35844 ft | 436 kts | 275° |
| 2026-04-17 06:41 | 61.93654 | 132.48150 | 35841 ft | 436 kts | 276° |
| 2026-04-17 06:41 | 61.94527 | 132.35331 | 35841 ft | 436 kts | 275° |
| 2026-04-17 06:42 | 61.95381 | 132.22592 | 35840 ft | 436 kts | 275° |
| 2026-04-17 06:42 | 61.96220 | 132.09850 | 35839 ft | 435 kts | 275° |
| 2026-04-17 06:43 | 61.97055 | 131.97092 | 35839 ft | 436 kts | 275° |
| 2026-04-17 06:43 | 61.97866 | 131.84342 | 35845 ft | 436 kts | 275° |
| 2026-04-17 06:44 | 61.98664 | 131.71558 | 35834 ft | 436 kts | 275° |
| 2026-04-17 06:44 | 61.99452 | 131.58788 | 35843 ft | 436 kts | 275° |
| 2026-04-17 06:45 | 62.00236 | 131.46009 | 35835 ft | 436 kts | 275° |
| 2026-04-17 06:45 | 62.01006 | 131.33228 | 35827 ft | 435 kts | 274° |
| 2026-04-17 06:46 | 62.01760 | 131.20419 | 35824 ft | 436 kts | 274° |
| 2026-04-17 06:46 | 62.02506 | 131.07630 | 35821 ft | 436 kts | 274° |
| 2026-04-17 06:47 | 62.03239 | 130.94816 | 35816 ft | 436 kts | 274° |
| 2026-04-17 06:47 | 62.03963 | 130.81917 | 35816 ft | 435 kts | 274° |
| 2026-04-17 06:48 | 62.04668 | 130.69106 | 35816 ft | 436 kts | 274° |
| 2026-04-17 06:48 | 62.05362 | 130.56273 | 35812 ft | 435 kts | 273° |
| 2026-04-17 06:49 | 62.06036 | 130.43454 | 35815 ft | 435 kts | 273° |
| 2026-04-17 06:49 | 62.06690 | 130.30613 | 35819 ft | 435 kts | 273° |
| 2026-04-17 06:50 | 62.07340 | 130.17683 | 36049 ft | 442 kts | 273° |
| 2026-04-17 06:50 | 62.07667 | 130.11149 | 36325 ft | 443 kts | 273° |
| 2026-04-17 06:50 | 62.07992 | 130.04596 | 36628 ft | 443 kts | 273° |
| 2026-04-17 06:50 | 62.08313 | 129.98062 | 36936 ft | 443 kts | 273° |
| 2026-04-17 06:51 | 62.08631 | 129.91534 | 37243 ft | 442 kts | 273° |
| 2026-04-17 06:51 | 62.08944 | 129.85006 | 37543 ft | 442 kts | 273° |
| 2026-04-17 06:51 | 62.09259 | 129.78473 | 37792 ft | 443 kts | 274° |
| 2026-04-17 06:52 | 62.10192 | 129.65481 | 37840 ft | 443 kts | 278° |
| 2026-04-17 06:52 | 62.11397 | 129.52565 | 37840 ft | 443 kts | 278° |
| 2026-04-17 06:53 | 62.12576 | 129.39636 | 37839 ft | 443 kts | 277° |
| 2026-04-17 06:53 | 62.13661 | 129.26691 | 37841 ft | 443 kts | 277° |
| 2026-04-17 06:54 | 62.14701 | 129.13705 | 37847 ft | 443 kts | 277° |
| 2026-04-17 06:54 | 62.15731 | 129.00726 | 37858 ft | 443 kts | 277° |
| 2026-04-17 06:55 | 62.16772 | 128.87661 | 37862 ft | 442 kts | 277° |
| 2026-04-17 06:55 | 62.17786 | 128.74688 | 37867 ft | 442 kts | 276° |
| 2026-04-17 06:56 | 62.18758 | 128.61693 | 37873 ft | 442 kts | 276° |
| 2026-04-17 06:56 | 62.19713 | 128.48686 | 37877 ft | 442 kts | 276° |
| 2026-04-17 06:57 | 62.20655 | 128.35670 | 37883 ft | 442 kts | 276° |
| 2026-04-17 06:57 | 62.21589 | 128.22672 | 37886 ft | 442 kts | 276° |
| 2026-04-17 06:58 | 62.22516 | 128.09641 | 37888 ft | 442 kts | 275° |
| 2026-04-17 06:58 | 62.23421 | 127.96618 | 37895 ft | 442 kts | 275° |
| 2026-04-17 06:59 | 62.24308 | 127.83602 | 37891 ft | 441 kts | 275° |
| 2026-04-17 06:59 | 62.25193 | 127.70554 | 37899 ft | 441 kts | 275° |
| 2026-04-17 07:00 | 62.26072 | 127.57531 | 37907 ft | 441 kts | 275° |
| 2026-04-17 07:00 | 62.26932 | 127.44484 | 37911 ft | 441 kts | 275° |
| 2026-04-17 07:01 | 62.27779 | 127.31427 | 37914 ft | 441 kts | 275° |
| 2026-04-17 07:01 | 62.28610 | 127.18385 | 37929 ft | 441 kts | 275° |
| 2026-04-17 07:02 | 62.29427 | 127.05326 | 37933 ft | 441 kts | 275° |
| 2026-04-17 07:02 | 62.30235 | 126.92259 | 37934 ft | 441 kts | 275° |
| 2026-04-17 07:03 | 62.31066 | 126.79200 | 37935 ft | 441 kts | 275° |
| 2026-04-17 07:03 | 62.31914 | 126.66059 | 37940 ft | 441 kts | 275° |
| 2026-04-17 07:04 | 62.32737 | 126.52992 | 37947 ft | 441 kts | 275° |
| 2026-04-17 07:04 | 62.33536 | 126.39923 | 37951 ft | 441 kts | 274° |
| 2026-04-17 07:05 | 62.34322 | 126.26847 | 37955 ft | 440 kts | 274° |
| 2026-04-17 07:05 | 62.35096 | 126.13768 | 37955 ft | 440 kts | 274° |
| 2026-04-17 07:06 | 62.35871 | 126.00689 | 37961 ft | 440 kts | 274° |
| 2026-04-17 07:06 | 62.36629 | 125.87607 | 37964 ft | 440 kts | 274° |
| 2026-04-17 07:07 | 62.37358 | 125.74519 | 37967 ft | 440 kts | 274° |
| 2026-04-17 07:07 | 62.38081 | 125.61423 | 37973 ft | 440 kts | 274° |
| 2026-04-17 07:08 | 62.38797 | 125.48323 | 37975 ft | 440 kts | 274° |
| 2026-04-17 07:08 | 62.39503 | 125.35225 | 37983 ft | 440 kts | 274° |
| 2026-04-17 07:09 | 62.40193 | 125.22131 | 37992 ft | 440 kts | 274° |
| 2026-04-17 07:09 | 62.40870 | 125.09018 | 37999 ft | 440 kts | 274° |
| 2026-04-17 07:10 | 62.41537 | 124.95907 | 38000 ft | 440 kts | 273° |
| 2026-04-17 07:10 | 62.42191 | 124.82707 | 38007 ft | 440 kts | 273° |
| 2026-04-17 07:11 | 62.42833 | 124.69595 | 38014 ft | 440 kts | 273° |
| 2026-04-17 07:11 | 62.43464 | 124.56471 | 38014 ft | 439 kts | 273° |
| 2026-04-17 07:12 | 62.44081 | 124.43342 | 38021 ft | 439 kts | 273° |
| 2026-04-17 07:12 | 62.44685 | 124.30206 | 38023 ft | 439 kts | 273° |
| 2026-04-17 07:13 | 62.45176 | 124.19295 | 38024 ft | 439 kts | 273° |
| 2026-04-17 07:13 | 62.45754 | 124.06160 | 38026 ft | 439 kts | 272° |
| 2026-04-17 07:14 | 62.46313 | 123.93027 | 38030 ft | 439 kts | 272° |
| 2026-04-17 07:14 | 62.46869 | 123.79878 | 38029 ft | 439 kts | 272° |
| 2026-04-17 07:15 | 62.47451 | 123.66737 | 38034 ft | 439 kts | 273° |
| 2026-04-17 07:15 | 62.48029 | 123.53597 | 38034 ft | 439 kts | 272° |
| 2026-04-17 07:16 | 62.48589 | 123.40367 | 38038 ft | 439 kts | 272° |
| 2026-04-17 07:16 | 62.49124 | 123.27213 | 38036 ft | 439 kts | 272° |
| 2026-04-17 07:17 | 62.49648 | 123.14073 | 38041 ft | 439 kts | 272° |
| 2026-04-17 07:17 | 62.50402 | 122.94350 | 38039 ft | 438 kts | 272° |
| 2026-04-17 07:18 | 62.50894 | 122.81206 | 38051 ft | 438 kts | 272° |
| 2026-04-17 07:18 | 62.51379 | 122.68055 | 38052 ft | 438 kts | 272° |
| 2026-04-17 07:19 | 62.51854 | 122.54904 | 38050 ft | 438 kts | 272° |
| 2026-04-17 07:19 | 62.52317 | 122.41752 | 38052 ft | 438 kts | 272° |
| 2026-04-17 07:20 | 62.52763 | 122.28594 | 38056 ft | 438 kts | 271° |
| 2026-04-17 07:20 | 62.53196 | 122.15456 | 38060 ft | 438 kts | 271° |
| 2026-04-17 07:21 | 62.53612 | 122.02308 | 38065 ft | 437 kts | 271° |
| 2026-04-17 07:21 | 62.54020 | 121.89156 | 38066 ft | 437 kts | 271° |
| 2026-04-17 07:22 | 62.54416 | 121.76030 | 38070 ft | 437 kts | 271° |
| 2026-04-17 07:22 | 62.54791 | 121.62897 | 38081 ft | 437 kts | 271° |
| 2026-04-17 07:23 | 62.55158 | 121.49668 | 38074 ft | 436 kts | 271° |
| 2026-04-17 07:23 | 62.55513 | 121.36632 | 38084 ft | 436 kts | 271° |
| 2026-04-17 07:24 | 62.55851 | 121.23424 | 38083 ft | 436 kts | 270° |
| 2026-04-17 07:24 | 62.56112 | 121.10306 | 38081 ft | 435 kts | 270° |
| 2026-04-17 07:25 | 62.56330 | 120.97188 | 38084 ft | 435 kts | 270° |
| 2026-04-17 07:25 | 62.56535 | 120.84088 | 38083 ft | 435 kts | 270° |
| 2026-04-17 07:26 | 62.56739 | 120.70991 | 38083 ft | 435 kts | 270° |
| 2026-04-17 07:26 | 62.56950 | 120.57891 | 38084 ft | 435 kts | 270° |
| 2026-04-17 07:27 | 62.57147 | 120.44793 | 38084 ft | 435 kts | 269° |
| 2026-04-17 07:27 | 62.57326 | 120.31687 | 38087 ft | 434 kts | 269° |
| 2026-04-17 07:28 | 62.57487 | 120.18602 | 38086 ft | 434 kts | 269° |
| 2026-04-17 07:28 | 62.57637 | 120.05506 | 38083 ft | 434 kts | 269° |
| 2026-04-17 07:29 | 62.57770 | 119.92422 | 38086 ft | 434 kts | 269° |
| 2026-04-17 07:29 | 62.57894 | 119.79334 | 38084 ft | 434 kts | 269° |
| 2026-04-17 07:30 | 62.58009 | 119.66262 | 38087 ft | 434 kts | 269° |
| 2026-04-17 07:30 | 62.58117 | 119.53171 | 38091 ft | 434 kts | 269° |
| 2026-04-17 07:31 | 62.58255 | 119.40013 | 38088 ft | 433 kts | 269° |
| 2026-04-17 07:31 | 62.58386 | 119.26938 | 38087 ft | 433 kts | 269° |
| 2026-04-17 07:32 | 62.58495 | 119.13887 | 38086 ft | 433 kts | 269° |
| 2026-04-17 07:32 | 62.58581 | 119.00834 | 38082 ft | 432 kts | 269° |
| 2026-04-17 07:33 | 62.58649 | 118.87791 | 38081 ft | 432 kts | 269° |
| 2026-04-17 07:33 | 62.58719 | 118.74741 | 38082 ft | 433 kts | 269° |
| 2026-04-17 07:34 | 62.58784 | 118.61686 | 38086 ft | 433 kts | 269° |
| 2026-04-17 07:34 | 62.58830 | 118.48625 | 38088 ft | 433 kts | 268° |
| 2026-04-17 07:35 | 62.58861 | 118.35560 | 38088 ft | 433 kts | 268° |
| 2026-04-17 07:35 | 62.58876 | 118.22496 | 38095 ft | 433 kts | 268° |
| 2026-04-17 07:36 | 62.58880 | 118.09438 | 38095 ft | 433 kts | 268° |
| 2026-04-17 07:36 | 62.58876 | 117.96391 | 38094 ft | 432 kts | 268° |
| 2026-04-17 07:37 | 62.58863 | 117.83338 | 38096 ft | 432 kts | 268° |
| 2026-04-17 07:37 | 62.58844 | 117.70295 | 38016 ft | 434 kts | 268° |
| 2026-04-17 07:38 | 62.58832 | 117.63686 | 37166 ft | 441 kts | 268° |
| 2026-04-17 07:38 | 62.58819 | 117.57071 | 36711 ft | 436 kts | 268° |
| 2026-04-17 07:38 | 62.58803 | 117.50520 | 36218 ft | 432 kts | 268° |
| 2026-04-17 07:38 | 62.58785 | 117.44032 | 35720 ft | 429 kts | 268° |
| 2026-04-17 07:39 | 62.58760 | 117.37510 | 35220 ft | 426 kts | 268° |
| 2026-04-17 07:39 | 62.58731 | 117.31181 | 34721 ft | 423 kts | 268° |
| 2026-04-17 07:39 | 62.58700 | 117.24738 | 34203 ft | 421 kts | 268° |
| 2026-04-17 07:39 | 62.58665 | 117.18413 | 33658 ft | 418 kts | 267° |
| 2026-04-17 07:40 | 62.58627 | 117.12147 | 33164 ft | 413 kts | 267° |
| 2026-04-17 07:40 | 62.58588 | 117.05946 | 32680 ft | 409 kts | 267° |
| 2026-04-17 07:40 | 62.58550 | 116.99818 | 32192 ft | 405 kts | 267° |
| 2026-04-17 07:40 | 62.58506 | 116.93740 | 31723 ft | 401 kts | 267° |
| 2026-04-17 07:41 | 62.58453 | 116.87730 | 31258 ft | 397 kts | 267° |
| 2026-04-17 07:41 | 62.58399 | 116.81767 | 30801 ft | 393 kts | 266° |
| 2026-04-17 07:41 | 62.58348 | 116.75876 | 30339 ft | 390 kts | 267° |
| 2026-04-17 07:41 | 62.58310 | 116.70011 | 29847 ft | 387 kts | 267° |
| 2026-04-17 07:42 | 62.58282 | 116.64214 | 29411 ft | 382 kts | 267° |
| 2026-04-17 07:42 | 62.58253 | 116.58491 | 28984 ft | 377 kts | 267° |
| 2026-04-17 07:42 | 62.58219 | 116.52844 | 28577 ft | 373 kts | 266° |
| 2026-04-17 07:42 | 62.58177 | 116.47247 | 28167 ft | 369 kts | 266° |
| 2026-04-17 07:43 | 62.58132 | 116.41716 | 27752 ft | 365 kts | 266° |
| 2026-04-17 07:43 | 62.58086 | 116.36232 | 27346 ft | 362 kts | 266° |
| 2026-04-17 07:43 | 62.58038 | 116.30795 | 26928 ft | 359 kts | 266° |
| 2026-04-17 07:43 | 62.57988 | 116.25405 | 26499 ft | 355 kts | 266° |
| 2026-04-17 07:44 | 62.57937 | 116.20071 | 26090 ft | 352 kts | 266° |
| 2026-04-17 07:44 | 62.57883 | 116.14795 | 25650 ft | 349 kts | 266° |
| 2026-04-17 07:44 | 62.57824 | 116.09546 | 25220 ft | 346 kts | 266° |
| 2026-04-17 07:44 | 62.57766 | 116.04350 | 24782 ft | 344 kts | 266° |
| 2026-04-17 07:45 | 62.57711 | 115.99185 | 24339 ft | 342 kts | 266° |
| 2026-04-17 07:45 | 62.57654 | 115.94046 | 23898 ft | 340 kts | 266° |
| 2026-04-17 07:45 | 62.57595 | 115.88933 | 23419 ft | 338 kts | 266° |
| 2026-04-17 07:45 | 62.57535 | 115.83861 | 22960 ft | 335 kts | 266° |
| 2026-04-17 07:46 | 62.57473 | 115.78840 | 22534 ft | 331 kts | 266° |
| 2026-04-17 07:46 | 62.57408 | 115.73864 | 22114 ft | 328 kts | 266° |
| 2026-04-17 07:46 | 62.57341 | 115.68939 | 21700 ft | 325 kts | 266° |
| 2026-04-17 07:46 | 62.57272 | 115.63997 | 21288 ft | 322 kts | 266° |
| 2026-04-17 07:47 | 62.57227 | 115.60783 | 21023 ft | 321 kts | 266° |
| 2026-04-17 07:47 | 62.57159 | 115.55971 | 20624 ft | 318 kts | 266° |
| 2026-04-17 07:47 | 62.57086 | 115.51187 | 20226 ft | 317 kts | 265° |
| 2026-04-17 07:47 | 62.57011 | 115.46428 | 19838 ft | 315 kts | 265° |
| 2026-04-17 07:48 | 62.56936 | 115.41692 | 19451 ft | 313 kts | 266° |
| 2026-04-17 07:48 | 62.56749 | 115.37021 | 19063 ft | 310 kts | 260° |
| 2026-04-17 07:48 | 62.56467 | 115.32387 | 18681 ft | 309 kts | 260° |
| 2026-04-17 07:48 | 62.56189 | 115.27783 | 18296 ft | 308 kts | 260° |
| 2026-04-17 07:49 | 62.55909 | 115.23191 | 17888 ft | 306 kts | 260° |
| 2026-04-17 07:49 | 62.55628 | 115.18638 | 17510 ft | 304 kts | 260° |
| 2026-04-17 07:49 | 62.55346 | 115.14111 | 17132 ft | 302 kts | 260° |
| 2026-04-17 07:49 | 62.55064 | 115.09621 | 16795 ft | 300 kts | 260° |
| 2026-04-17 07:50 | 62.54781 | 115.05147 | 16429 ft | 301 kts | 260° |
| 2026-04-17 07:50 | 62.54493 | 115.00636 | 16072 ft | 303 kts | 260° |
| 2026-04-17 07:50 | 62.54207 | 114.96129 | 15720 ft | 301 kts | 260° |
| 2026-04-17 07:50 | 62.53924 | 114.91653 | 15370 ft | 299 kts | 260° |
| 2026-04-17 07:51 | 62.53640 | 114.87196 | 15018 ft | 298 kts | 260° |
| 2026-04-17 07:51 | 62.53354 | 114.82770 | 14674 ft | 296 kts | 260° |
| 2026-04-17 07:51 | 62.53064 | 114.78362 | 14332 ft | 295 kts | 260° |
| 2026-04-17 07:51 | 62.52772 | 114.73910 | 13975 ft | 294 kts | 260° |
| 2026-04-17 07:52 | 62.52486 | 114.69527 | 13605 ft | 294 kts | 260° |
| 2026-04-17 07:52 | 62.52202 | 114.65221 | 13249 ft | 291 kts | 259° |
| 2026-04-17 07:52 | 62.51727 | 114.60946 | 12894 ft | 287 kts | 248° |
| 2026-04-17 07:52 | 62.50920 | 114.57034 | 12540 ft | 283 kts | 242° |
| 2026-04-17 07:53 | 62.50086 | 114.53182 | 12198 ft | 281 kts | 243° |
| 2026-04-17 07:53 | 62.49261 | 114.49358 | 11843 ft | 280 kts | 243° |
| 2026-04-17 07:53 | 62.48440 | 114.45559 | 11493 ft | 278 kts | 242° |
| 2026-04-17 07:53 | 62.47624 | 114.41780 | 11148 ft | 277 kts | 243° |
| 2026-04-17 07:54 | 62.46812 | 114.38030 | 10791 ft | 275 kts | 242° |
| 2026-04-17 07:54 | 62.46000 | 114.34282 | 10427 ft | 274 kts | 242° |
| 2026-04-17 07:54 | 62.45193 | 114.30560 | 10075 ft | 273 kts | 242° |
| 2026-04-17 07:54 | 62.44390 | 114.26863 | 9693 ft | 272 kts | 242° |
| 2026-04-17 07:55 | 62.43589 | 114.23181 | 9314 ft | 270 kts | 242° |
| 2026-04-17 07:55 | 62.42794 | 114.19527 | 8946 ft | 267 kts | 242° |
| 2026-04-17 07:55 | 62.42006 | 114.15915 | 8574 ft | 265 kts | 242° |
| 2026-04-17 07:55 | 62.41221 | 114.12321 | 8204 ft | 263 kts | 242° |
| 2026-04-17 07:56 | 62.40443 | 114.08769 | 7830 ft | 261 kts | 242° |
| 2026-04-17 07:56 | 62.39665 | 114.05232 | 7444 ft | 260 kts | 242° |
| 2026-04-17 07:56 | 62.38890 | 114.01725 | 7069 ft | 259 kts | 242° |
| 2026-04-17 07:56 | 62.38116 | 113.98225 | 6674 ft | 258 kts | 242° |
| 2026-04-17 07:57 | 62.37345 | 113.94746 | 6283 ft | 257 kts | 242° |
| 2026-04-17 07:57 | 62.36578 | 113.91290 | 5884 ft | 255 kts | 242° |
| 2026-04-17 07:57 | 62.35867 | 113.87802 | 5470 ft | 255 kts | 252° |
| 2026-04-17 07:57 | 62.35731 | 113.84031 | 5094 ft | 254 kts | 278° |
| 2026-04-17 07:58 | 62.36308 | 113.80563 | 4985 ft | 240 kts | 302° |
| 2026-04-17 07:58 | 62.37376 | 113.77970 | 4898 ft | 225 kts | 325° |
| 2026-04-17 07:58 | 62.38639 | 113.76124 | 4799 ft | 217 kts | 329° |
| 2026-04-17 07:58 | 62.39885 | 113.74319 | 4692 ft | 215 kts | 328° |
| 2026-04-17 07:59 | 62.41131 | 113.72525 | 4582 ft | 215 kts | 331° |
| 2026-04-17 07:59 | 62.42521 | 113.71740 | 4482 ft | 206 kts | 11° |
| 2026-04-17 07:59 | 62.43791 | 113.72978 | 4242 ft | 198 kts | 48° |
| 2026-04-17 07:59 | 62.44564 | 113.75414 | 3911 ft | 198 kts | 61° |
| 2026-04-17 08:00 | 62.45321 | 113.77922 | 3614 ft | 200 kts | 59° |
| 2026-04-17 08:00 | 62.46108 | 113.80424 | 3320 ft | 202 kts | 58° |
| 2026-04-17 08:00 | 62.46893 | 113.82907 | 3001 ft | 198 kts | 58° |
| 2026-04-17 08:00 | 62.47659 | 113.85326 | 2718 ft | 192 kts | 58° |
| 2026-04-17 08:01 | 62.48394 | 113.87649 | 2506 ft | 180 kts | 59° |
| 2026-04-17 08:01 | 62.49060 | 113.89766 | 2303 ft | 163 kts | 59° |
| 2026-04-17 08:01 | 62.49670 | 113.91700 | 2106 ft | 148 kts | 59° |
| 2026-04-17 08:01 | 62.50215 | 113.93425 | 1936 ft | 130 kts | 60° |
| 2026-04-17 08:02 | 62.50710 | 113.94998 | 1782 ft | 123 kts | 60° |
| 2026-04-17 08:02 | 62.51116 | 113.96305 | 1672 ft | 121 kts | 60° |
| 2026-04-17 08:02 | 62.51585 | 113.97807 | 1522 ft | 120 kts | 60° |
| 2026-04-17 08:02 | 62.52056 | 113.99315 | 1393 ft | 121 kts | 59° |
| 2026-04-17 08:03 | 62.52529 | 114.00830 | 1266 ft | 121 kts | 59° |
| 2026-04-17 08:03 | 62.52988 | 114.02351 | 1174 ft | 119 kts | 55° |
| 2026-04-17 08:03 | 62.53365 | 114.03575 | 1170 ft | 76 kts | 56° |
| 2026-04-17 08:03 | 62.53524 | 114.04086 | 1167 ft | 13 kts | 69° |
| 2026-04-17 08:04 | 62.53538 | 114.04122 | 1165 ft | 7 kts | 243° |
| 2026-04-17 08:04 | 62.53498 | 114.03989 | 1167 ft | 13 kts | 236° |
| 2026-04-17 08:04 | 62.53441 | 114.03801 | 1166 ft | 17 kts | 236° |
| 2026-04-17 08:04 | 62.53371 | 114.03569 | 1165 ft | 19 kts | 237° |
| 2026-04-17 08:05 | 62.53290 | 114.03307 | 1169 ft | 22 kts | 235° |
| 2026-04-17 08:05 | 62.53196 | 114.03005 | 1166 ft | 26 kts | 236° |
| 2026-04-17 08:05 | 62.53092 | 114.02663 | 1166 ft | 28 kts | 237° |
| 2026-04-17 08:05 | 62.53033 | 114.02431 | 1169 ft | 9 kts | 282° |
| 2026-04-17 08:06 | 62.53066 | 114.02373 | 1168 ft | 6 kts | 326° |
| 2026-04-17 08:06 | 62.53078 | 114.02355 | 1167 ft | 4 kts | 326° |
| 2026-04-17 08:06 | 62.53090 | 114.02338 | 1169 ft | 3 kts | 326° |
| 2026-04-17 08:06 | 62.53122 | 114.02330 | 1169 ft | 5 kts | 30° |
| 2026-04-17 08:07 | 62.53144 | 114.02405 | 1168 ft | 8 kts | 58° |
| 2026-04-17 08:07 | 62.53138 | 114.02464 | 1169 ft | 3 kts | 147° |
| 2026-04-17 08:07 | 62.53125 | 114.02480 | 1170 ft | 2 kts | 147° |
| 2026-04-17 08:07 | 62.53124 | 114.02481 | 1171 ft | 0 kts | 146° |